SCC: Phoenix GS qualifying times

Pos Num Class Team Time Gap To 1st Speed --- --- ----- ------------------------------ ---------- ------- ------- ------- 1. 17 GS Doncaster Racing 1:07.517 80.513 2. 05...

Pos Num Class Team                                 Time     Gap  To 1st   Speed
--- --- ----- ------------------------------ ---------- ------- ------- -------
 1.  17 GS    Doncaster Racing                 1:07.517                  80.513
 2.  05 GS    Multimatic Motorsports           1:08.182   0.665   0.665  79.728
 3.  81 GS    Synergy Racing                   1:08.246   0.064   0.729  79.653
 4.  96 GS    Turner Motorsport                1:08.259   0.013   0.742  79.638
 5.   7 GS    Power Racing Team                1:08.409   0.150   0.892  79.463
 6.  38 GS    BGB Motorsports                  1:08.410   0.001   0.893  79.462
 7.  33 GS    Unitech Racing                   1:08.674   0.264   1.157  79.157
 8.  13 GS    Unitech Racing                   1:08.779   0.105   1.262  79.036
 9.   5 GS    Blackforest Motorsports          1:09.073   0.294   1.556  78.699
10.  83 GS    BGB Motorsports                  1:09.165   0.092   1.648  78.595
11.  55 GS    Multimatic Motorsports           1:09.326   0.161   1.809  78.412
12.  59 GS    Rehagen Racing                   1:09.542   0.216   2.025  78.169
13.  09 GS    Automatic Racing                 1:09.543   0.001   2.026  78.167
14.  40 GS    Team Sahlen                      1:09.603   0.060   2.086  78.100
15.  47 GS    TF Racing                        1:09.789   0.186   2.272  77.892
16.  11 GS    Powell Motorsport                1:09.897   0.108   2.380  77.772
17.  80 GS    Synergy Racing                   1:10.472   0.575   2.955  77.137
18.  60 GS    Finlay Motorsports               1:10.871   0.399   3.354  76.703
19.  58 GS    Rehagen Racing                   1:11.064   0.193   3.547  76.494
20.  63 GS    Team RPM                         1:11.099   0.035   3.582  76.457
21.  43 GS    Team Sahlen                      1:11.360   0.261   3.843  76.177
22.  91 GS    Fiorano Racing                   1:11.460   0.100   3.943  76.071
23.  24 GS    Power Racing Team                1:12.443   0.983   4.926  75.038
24.   4 GS    Blackforest Motorsports          1:13.108   0.665   5.591  74.356

Be part of something big

Write a comment
Show comments
About this article
Series Grand-Am
Teams Rehagen Racing , Turner Motorsport , Team Sahlen , Multimatic Motorsports , Automatic Racing